createdAt,value
2023-11-23T00:00:03.367Z,26.12
2023-11-23T00:01:06.810Z,26.80
2023-11-23T00:02:09.673Z,26.20
2023-11-23T00:03:12.519Z,26.10
2023-11-23T00:04:15.207Z,26.65
2023-11-23T00:05:18.247Z,25.98
2023-11-23T00:06:20.943Z,26.38
2023-11-23T00:07:24.880Z,27.98
2023-11-23T00:08:27.833Z,26.02
2023-11-23T00:09:30.459Z,25.72
2023-11-23T00:10:33.090Z,26.17
2023-11-23T00:11:35.716Z,26.97
2023-11-23T00:12:38.375Z,26.93
2023-11-23T00:13:41.103Z,26.32
2023-11-23T00:14:43.740Z,27.03
2023-11-23T00:15:46.378Z,26.13
2023-11-23T00:16:49.119Z,26.32
2023-11-23T00:17:51.852Z,26.38
2023-11-23T00:18:54.584Z,25.28
2023-11-23T00:19:57.779Z,24.90
2023-11-23T00:21:00.503Z,25.85
2023-11-23T00:22:03.178Z,26.02
2023-11-23T00:23:05.840Z,24.85
2023-11-23T00:24:08.932Z,25.50
2023-11-23T00:25:13.398Z,26.32
2023-11-23T00:26:16.210Z,26.20
2023-11-23T00:27:19.047Z,25.83
2023-11-23T00:28:21.778Z,25.42
2023-11-23T00:29:24.463Z,25.25
2023-11-23T00:30:27.055Z,24.67
2023-11-23T00:31:29.735Z,26.03
2023-11-23T00:32:33.389Z,26.02
2023-11-23T00:33:36.135Z,26.82
2023-11-23T00:34:39.420Z,25.52
2023-11-23T00:35:42.756Z,25.88
2023-11-23T00:36:45.909Z,25.42
2023-11-23T00:37:48.576Z,25.38
2023-11-23T00:38:51.271Z,26.23
2023-11-23T00:39:54.027Z,25.97
2023-11-23T00:40:56.700Z,26.03
2023-11-23T00:41:59.599Z,25.75
2023-11-23T00:43:02.219Z,26.63
2023-11-23T00:44:05.890Z,25.90
2023-11-23T00:45:09.103Z,25.30
2023-11-23T00:46:13.951Z,24.87
2023-11-23T00:47:16.643Z,25.65
2023-11-23T00:48:19.386Z,25.73
2023-11-23T00:49:23.131Z,26.40
2023-11-23T00:50:25.809Z,27.08
2023-11-23T00:51:28.499Z,26.60
2023-11-23T00:52:31.125Z,26.88
2023-11-23T00:53:33.761Z,26.12
2023-11-23T00:54:40.826Z,26.23
2023-11-23T00:55:43.542Z,25.73
2023-11-23T00:56:46.378Z,25.23
2023-11-23T00:57:49.124Z,25.62
2023-11-23T00:58:54.532Z,25.83
2023-11-23T00:59:57.468Z,26.18
2023-11-23T01:01:00.282Z,25.32
2023-11-23T01:02:03.598Z,26.58
2023-11-23T01:03:07.933Z,26.52
2023-11-23T01:04:10.793Z,26.33
2023-11-23T01:05:16.402Z,26.43
2023-11-23T01:06:19.111Z,26.95
2023-11-23T01:07:21.706Z,25.52
2023-11-23T01:08:24.363Z,25.67
2023-11-23T01:09:27.465Z,26.65
2023-11-23T01:10:30.126Z,26.37
2023-11-23T01:11:32.782Z,26.12
2023-11-23T01:12:35.443Z,26.25
2023-11-23T01:13:38.700Z,25.68
2023-11-23T01:14:41.471Z,26.30
2023-11-23T01:15:44.089Z,26.43
2023-11-23T01:16:47.229Z,26.73
2023-11-23T01:17:49.924Z,26.72
2023-11-23T01:18:52.612Z,26.98
2023-11-23T01:19:55.242Z,26.88
2023-11-23T01:20:58.553Z,26.80
2023-11-23T01:22:22.028Z,27.45
2023-11-23T01:23:24.864Z,26.60
2023-11-23T01:24:48.609Z,27.22
2023-11-23T01:25:51.331Z,26.23
2023-11-23T01:26:54.027Z,26.17
2023-11-23T01:27:56.707Z,26.10
2023-11-23T01:28:59.387Z,25.28
2023-11-23T01:30:02.307Z,25.95
2023-11-23T01:31:05.690Z,25.50
2023-11-23T01:32:09.240Z,25.88
2023-11-23T01:33:13.063Z,26.32
2023-11-23T01:34:15.937Z,25.80
2023-11-23T01:35:21.793Z,24.27
2023-11-23T01:36:24.512Z,25.67
2023-11-23T01:37:27.152Z,26.32
2023-11-23T01:38:29.881Z,25.55
2023-11-23T01:39:32.493Z,26.10
2023-11-23T01:40:35.111Z,25.73
2023-11-23T01:41:37.734Z,25.30
2023-11-23T01:42:40.407Z,25.22
2023-11-23T01:43:46.893Z,25.20
2023-11-23T01:44:49.647Z,25.30
2023-11-23T01:45:52.340Z,23.72
2023-11-23T01:46:54.973Z,24.10
2023-11-23T01:47:57.785Z,24.62
2023-11-23T01:49:03.142Z,24.33
2023-11-23T01:50:06.673Z,24.52
2023-11-23T01:51:10.886Z,24.68
2023-11-23T01:52:13.650Z,23.97
2023-11-23T01:53:17.089Z,23.73
2023-11-23T01:54:20.006Z,23.85
2023-11-23T01:55:22.728Z,23.92
2023-11-23T01:56:27.387Z,24.85
2023-11-23T01:57:34.963Z,24.67
2023-11-23T01:58:38.166Z,24.90
2023-11-23T01:59:40.897Z,24.15
2023-11-23T02:00:43.997Z,24.77
2023-11-23T02:01:46.862Z,24.52
2023-11-23T02:02:49.967Z,23.80
2023-11-23T02:03:53.061Z,24.70
2023-11-23T02:04:59.506Z,24.22
2023-11-23T02:06:02.392Z,23.88
2023-11-23T02:07:07.058Z,24.15
2023-11-23T02:08:09.732Z,23.90
2023-11-23T02:09:12.548Z,24.35
2023-11-23T02:10:16.102Z,24.57
2023-11-23T02:11:18.759Z,24.27
2023-11-23T02:12:22.420Z,23.48
2023-11-23T02:13:25.492Z,23.93
2023-11-23T02:14:28.699Z,23.73
2023-11-23T02:15:31.947Z,24.53
2023-11-23T02:16:35.719Z,23.58
2023-11-23T02:17:38.429Z,23.90
2023-11-23T02:18:41.190Z,24.07
2023-11-23T02:19:45.161Z,24.28
2023-11-23T02:20:48.147Z,24.17
2023-11-23T02:21:50.814Z,24.08
2023-11-23T02:22:53.496Z,23.83
2023-11-23T02:23:56.256Z,23.70
2023-11-23T02:24:58.903Z,24.33
2023-11-23T02:26:02.604Z,24.77
2023-11-23T02:27:05.411Z,24.18
2023-11-23T02:28:09.064Z,23.90
2023-11-23T02:29:11.806Z,23.80
2023-11-23T02:30:14.979Z,24.60
2023-11-23T02:31:17.781Z,23.33
2023-11-23T02:32:20.474Z,24.40
2023-11-23T02:33:23.182Z,24.47
2023-11-23T02:34:26.148Z,24.30
2023-11-23T02:35:29.382Z,24.18
2023-11-23T02:36:32.095Z,25.13
2023-11-23T02:37:34.714Z,24.57
2023-11-23T02:38:37.425Z,24.00
2023-11-23T02:39:44.590Z,24.00
2023-11-23T02:40:47.318Z,24.50
2023-11-23T02:41:50.009Z,24.58
2023-11-23T02:42:52.670Z,24.83
2023-11-23T02:43:55.297Z,24.97
2023-11-23T02:44:58.064Z,24.42
2023-11-23T02:46:00.791Z,23.90
2023-11-23T02:47:03.558Z,24.97
2023-11-23T02:48:06.473Z,25.43
2023-11-23T02:49:10.578Z,24.60
2023-11-23T02:50:13.197Z,24.95
2023-11-23T02:51:16.074Z,24.55
2023-11-23T02:52:18.855Z,24.73
2023-11-23T02:53:33.062Z,24.38
2023-11-23T02:54:35.684Z,25.35
2023-11-23T02:55:38.298Z,24.47
2023-11-23T02:56:41.059Z,24.47
2023-11-23T02:57:43.744Z,24.85
2023-11-23T02:58:48.030Z,23.93
2023-11-23T02:59:51.525Z,23.93
2023-11-23T03:00:54.260Z,24.73
2023-11-23T03:01:57.098Z,24.78
2023-11-23T03:02:59.890Z,24.17
2023-11-23T03:04:02.777Z,24.67
2023-11-23T03:05:06.266Z,23.50
2023-11-23T03:06:09.301Z,24.33
2023-11-23T03:07:11.953Z,24.35
2023-11-23T03:08:14.627Z,24.93
2023-11-23T03:09:20.763Z,24.27
2023-11-23T03:10:23.563Z,24.83
2023-11-23T03:11:27.581Z,24.65
2023-11-23T03:12:30.345Z,23.35
2023-11-23T03:13:33.012Z,24.15
2023-11-23T03:14:35.908Z,24.18
2023-11-23T03:15:38.529Z,23.87
2023-11-23T03:16:42.828Z,24.78
2023-11-23T03:17:45.517Z,23.50
2023-11-23T03:18:48.464Z,24.12
2023-11-23T03:19:51.258Z,24.33
2023-11-23T03:20:53.984Z,24.18
2023-11-23T03:21:56.887Z,25.12
2023-11-23T03:22:59.715Z,24.18
2023-11-23T03:24:02.459Z,24.38
2023-11-23T03:25:05.494Z,23.30
2023-11-23T03:26:08.075Z,23.38
2023-11-23T03:27:10.855Z,23.83
2023-11-23T03:28:14.016Z,24.65
2023-11-23T03:29:16.751Z,25.03
2023-11-23T03:30:19.617Z,24.50
2023-11-23T03:31:22.258Z,24.27
2023-11-23T03:32:26.620Z,25.53
2023-11-23T03:33:29.371Z,24.47
2023-11-23T03:34:32.637Z,24.63
2023-11-23T03:35:35.267Z,25.32
2023-11-23T03:36:37.988Z,24.62
2023-11-23T03:37:40.620Z,25.30
2023-11-23T03:38:43.434Z,24.52
2023-11-23T03:39:46.762Z,24.70
2023-11-23T03:40:49.411Z,24.12
2023-11-23T03:41:52.098Z,24.22
2023-11-23T03:42:54.818Z,24.03
2023-11-23T03:43:58.884Z,24.78
2023-11-23T03:45:01.591Z,24.45
2023-11-23T03:46:04.294Z,23.52
2023-11-23T03:47:07.029Z,23.88
2023-11-23T03:48:09.680Z,23.68
2023-11-23T03:49:12.387Z,24.67
2023-11-23T03:50:15.316Z,24.93
2023-11-23T03:51:18.016Z,24.18
2023-11-23T03:52:20.705Z,24.38
2023-11-23T03:53:23.310Z,24.17
2023-11-23T03:54:26.039Z,22.93
2023-11-23T03:55:29.777Z,24.68
2023-11-23T03:56:32.455Z,24.87
2023-11-23T03:57:35.515Z,24.10
2023-11-23T03:58:38.125Z,24.55
2023-11-23T03:59:40.751Z,24.65
2023-11-23T04:00:44.223Z,23.83
2023-11-23T04:01:48.939Z,24.68
2023-11-23T04:02:51.691Z,24.35
2023-11-23T04:03:54.408Z,24.18
2023-11-23T04:04:57.110Z,24.33
2023-11-23T04:05:59.947Z,23.62
2023-11-23T04:07:02.656Z,23.50
2023-11-23T04:08:06.357Z,23.95
2023-11-23T04:09:12.535Z,25.32
2023-11-23T04:10:15.924Z,25.08
2023-11-23T04:11:18.600Z,23.82
2023-11-23T04:12:21.251Z,25.47
2023-11-23T04:13:23.997Z,25.12
2023-11-23T04:14:29.324Z,25.57
2023-11-23T04:15:31.995Z,35.45
2023-11-23T04:16:34.705Z,42.37
2023-11-23T04:17:37.382Z,37.87
2023-11-23T04:18:43.126Z,38.53
2023-11-23T04:19:46.082Z,38.87
2023-11-23T04:20:48.734Z,38.23
2023-11-23T04:21:51.386Z,42.15
2023-11-23T04:22:53.961Z,42.47
2023-11-23T04:23:56.624Z,39.88
2023-11-23T04:24:59.620Z,34.78
2023-11-23T04:26:02.427Z,30.62
2023-11-23T04:27:05.399Z,28.32
2023-11-23T04:28:08.174Z,26.78
2023-11-23T04:29:11.605Z,25.83
2023-11-23T04:30:14.450Z,25.83
2023-11-23T04:31:17.081Z,24.78
2023-11-23T04:32:19.753Z,24.43
2023-11-23T04:33:24.618Z,25.10
2023-11-23T04:34:28.867Z,25.03
2023-11-23T04:35:31.540Z,23.98
2023-11-23T04:36:35.364Z,25.08
2023-11-23T04:37:38.105Z,24.82
2023-11-23T04:38:40.734Z,23.87
2023-11-23T04:39:43.395Z,23.72
2023-11-23T04:40:46.103Z,23.73
2023-11-23T04:41:48.777Z,24.98
2023-11-23T04:42:51.450Z,24.57
2023-11-23T04:43:54.060Z,24.63
2023-11-23T04:44:56.740Z,24.32
2023-11-23T04:45:59.349Z,24.25
2023-11-23T04:47:01.968Z,22.60
2023-11-23T04:48:05.195Z,23.63
2023-11-23T04:49:07.837Z,24.17
2023-11-23T04:50:10.545Z,24.50
2023-11-23T04:51:13.219Z,23.57
2023-11-23T04:52:15.843Z,23.65
2023-11-23T04:53:19.248Z,24.17
2023-11-23T04:54:21.958Z,24.08
2023-11-23T04:55:24.725Z,24.28
2023-11-23T04:56:27.502Z,24.53
2023-11-23T04:57:30.173Z,23.77
2023-11-23T04:58:32.899Z,24.60
2023-11-23T04:59:35.532Z,24.40
2023-11-23T05:00:38.229Z,24.28
2023-11-23T05:01:40.919Z,24.75
2023-11-23T05:02:44.827Z,24.38
2023-11-23T05:03:47.914Z,25.00
2023-11-23T05:04:50.664Z,26.10
2023-11-23T05:05:53.403Z,26.03
2023-11-23T05:06:59.170Z,26.50
2023-11-23T05:08:01.798Z,25.48
2023-11-23T05:09:04.739Z,25.82
2023-11-23T05:10:09.434Z,25.23
2023-11-23T05:11:13.281Z,24.73
2023-11-23T05:12:16.001Z,25.00
2023-11-23T05:13:18.654Z,24.77
2023-11-23T05:14:21.284Z,24.15
2023-11-23T05:15:23.928Z,23.98
2023-11-23T05:16:26.631Z,23.35
2023-11-23T05:17:31.370Z,24.43
2023-11-23T05:18:34.110Z,23.52
2023-11-23T05:19:42.620Z,23.57
2023-11-23T05:20:46.094Z,23.03
2023-11-23T05:21:48.752Z,23.88
2023-11-23T05:22:52.460Z,23.33
2023-11-23T05:23:55.126Z,23.58
2023-11-23T05:24:57.854Z,22.98
2023-11-23T05:26:00.641Z,22.85
2023-11-23T05:27:03.342Z,23.70
2023-11-23T05:28:05.974Z,22.85
2023-11-23T05:29:08.604Z,23.45
2023-11-23T05:30:13.221Z,22.38
2023-11-23T05:31:15.933Z,23.55
2023-11-23T05:32:18.588Z,24.15
2023-11-23T05:33:23.862Z,23.85
2023-11-23T05:34:28.060Z,23.13
2023-11-23T05:35:31.384Z,23.85
2023-11-23T05:36:34.028Z,25.27
2023-11-23T05:37:36.671Z,24.93
2023-11-23T05:38:39.583Z,25.65
2023-11-23T05:39:44.126Z,24.78
2023-11-23T05:40:47.380Z,24.40
2023-11-23T05:41:50.018Z,24.72
2023-11-23T05:42:58.229Z,23.80
2023-11-23T05:44:07.559Z,24.13
2023-11-23T05:45:10.696Z,24.60
2023-11-23T05:46:14.871Z,24.58
2023-11-23T05:47:17.824Z,24.37
2023-11-23T05:48:20.581Z,25.12
2023-11-23T05:49:23.284Z,24.25
2023-11-23T05:50:25.894Z,24.27
2023-11-23T05:51:29.463Z,23.18
2023-11-23T05:52:32.203Z,24.22
2023-11-23T05:53:34.803Z,24.32
2023-11-23T05:54:38.727Z,23.33
2023-11-23T05:55:41.464Z,23.78
2023-11-23T05:56:45.235Z,24.42
2023-11-23T05:57:47.880Z,23.33
2023-11-23T05:58:50.915Z,23.87
2023-11-23T05:59:53.599Z,24.75
2023-11-23T06:01:03.686Z,25.23
2023-11-23T06:02:12.671Z,28.65
2023-11-23T06:03:15.586Z,27.57
2023-11-23T06:04:18.834Z,32.02
2023-11-23T06:05:21.681Z,44.03
2023-11-23T06:06:25.121Z,42.25
2023-11-23T06:07:27.772Z,34.03
2023-11-23T06:08:30.425Z,30.03
2023-11-23T06:09:33.136Z,29.30
2023-11-23T06:10:35.784Z,30.13
2023-11-23T06:11:38.685Z,27.95
2023-11-23T06:12:41.710Z,26.30
2023-11-23T06:13:45.956Z,26.05
2023-11-23T06:14:48.826Z,26.57
2023-11-23T06:15:52.122Z,26.47
2023-11-23T06:16:54.789Z,26.38
2023-11-23T06:18:07.540Z,27.08
2023-11-23T06:19:16.562Z,25.57
2023-11-23T06:20:19.796Z,26.87
2023-11-23T06:21:22.931Z,25.95
2023-11-23T06:22:25.604Z,26.53
2023-11-23T06:23:29.868Z,25.87
2023-11-23T06:24:32.469Z,26.22
2023-11-23T06:25:35.091Z,26.13
2023-11-23T06:26:37.700Z,25.83
2023-11-23T06:27:40.278Z,26.92
2023-11-23T06:28:42.875Z,26.18
2023-11-23T06:29:45.633Z,25.68
2023-11-23T06:30:48.249Z,25.43
2023-11-23T06:31:51.544Z,24.52
2023-11-23T06:32:54.357Z,25.37
2023-11-23T06:33:57.120Z,25.23
2023-11-23T06:34:59.931Z,25.13
2023-11-23T06:36:02.648Z,25.08
2023-11-23T06:37:07.995Z,24.77
2023-11-23T06:38:10.719Z,24.23
2023-11-23T06:39:13.468Z,24.67
2023-11-23T06:40:18.636Z,24.88
2023-11-23T06:41:26.807Z,24.52
2023-11-23T06:42:30.912Z,23.90
2023-11-23T06:43:33.809Z,23.98
2023-11-23T06:44:38.367Z,23.98
2023-11-23T06:45:41.237Z,24.22
2023-11-23T06:46:44.078Z,24.57
2023-11-23T06:47:46.828Z,24.38
2023-11-23T06:48:49.955Z,24.07
2023-11-23T06:49:53.456Z,23.87
2023-11-23T06:50:57.019Z,24.73
2023-11-23T06:52:00.245Z,23.50
2023-11-23T06:53:03.539Z,24.27
2023-11-23T06:54:07.482Z,24.68
2023-11-23T06:55:11.248Z,23.72
2023-11-23T06:56:15.454Z,24.55
2023-11-23T06:57:18.210Z,23.32
2023-11-23T06:58:22.454Z,26.10
2023-11-23T06:59:25.157Z,27.10
2023-11-23T07:00:27.862Z,23.87
2023-11-23T07:01:30.560Z,24.50
2023-11-23T07:02:33.372Z,28.27
2023-11-23T07:03:39.540Z,24.37
2023-11-23T07:04:42.638Z,38.52
2023-11-23T07:05:45.319Z,29.80
2023-11-23T07:06:48.172Z,26.20
2023-11-23T07:07:51.470Z,28.05
2023-11-23T07:08:55.336Z,26.13
2023-11-23T07:09:58.014Z,25.80
2023-11-23T07:11:01.267Z,24.12
2023-11-23T07:12:04.297Z,25.20
2023-11-23T07:13:06.999Z,25.67
2023-11-23T07:14:09.652Z,32.95
2023-11-23T07:15:13.619Z,38.35
2023-11-23T07:16:16.526Z,29.82
2023-11-23T07:17:19.164Z,33.18
2023-11-23T07:18:22.024Z,34.92
2023-11-23T07:19:24.836Z,25.12
2023-11-23T07:20:27.695Z,24.72
2023-11-23T07:21:30.918Z,34.50
2023-11-23T07:22:34.448Z,25.65
2023-11-23T07:23:37.802Z,23.88
2023-11-23T07:24:40.538Z,24.02
2023-11-23T07:25:46.654Z,27.10
2023-11-23T07:26:51.260Z,26.55
2023-11-23T07:27:54.086Z,23.97
2023-11-23T07:28:56.667Z,23.90
2023-11-23T07:29:59.868Z,25.22
2023-11-23T07:31:02.777Z,25.08
2023-11-23T07:32:06.145Z,23.37
2023-11-23T07:33:09.410Z,28.08
2023-11-23T07:34:12.041Z,27.67
2023-11-23T07:35:14.759Z,27.65
2023-11-23T07:36:17.999Z,26.08
2023-11-23T07:37:20.971Z,25.37
2023-11-23T07:38:23.913Z,27.55
2023-11-23T07:39:27.080Z,27.80
2023-11-23T07:40:29.987Z,26.12
2023-11-23T07:41:32.889Z,26.02
2023-11-23T07:42:35.884Z,24.85
2023-11-23T07:43:39.537Z,24.85
2023-11-23T07:44:42.507Z,23.72
2023-11-23T07:45:45.264Z,23.32
2023-11-23T07:46:48.732Z,25.10
2023-11-23T07:47:51.592Z,25.45
2023-11-23T07:48:54.550Z,24.00
2023-11-23T07:49:59.074Z,23.98
2023-11-23T07:51:01.768Z,23.40
2023-11-23T07:52:04.772Z,23.32
2023-11-23T07:53:08.787Z,22.42
2023-11-23T07:54:11.398Z,22.30
2023-11-23T07:55:19.816Z,24.55
2023-11-23T07:56:22.505Z,24.08
2023-11-23T07:57:25.170Z,23.77
2023-11-23T07:58:27.952Z,22.43
2023-11-23T07:59:30.844Z,22.82
2023-11-23T08:00:33.637Z,24.07
2023-11-23T08:01:36.534Z,23.40
2023-11-23T08:02:39.110Z,23.38
2023-11-23T08:03:41.995Z,23.27
2023-11-23T08:04:45.579Z,23.43
2023-11-23T08:05:49.233Z,22.93
2023-11-23T08:06:53.174Z,23.07
2023-11-23T08:07:55.911Z,23.53
2023-11-23T08:08:58.702Z,23.30
2023-11-23T08:10:01.347Z,23.78
2023-11-23T08:11:04.700Z,23.48
2023-11-23T08:12:07.689Z,22.95
2023-11-23T08:13:10.342Z,23.82
2023-11-23T08:14:14.305Z,23.28
2023-11-23T08:15:17.224Z,22.38
2023-11-23T08:16:21.429Z,22.70
2023-11-23T08:17:24.444Z,22.85
2023-11-23T08:18:36.606Z,23.32
2023-11-23T08:19:47.966Z,22.53
2023-11-23T08:20:50.729Z,23.08
2023-11-23T08:21:53.606Z,23.18
2023-11-23T08:22:56.320Z,23.53
2023-11-23T08:23:59.208Z,23.37
2023-11-23T08:25:02.007Z,23.40
2023-11-23T08:26:06.452Z,24.00
2023-11-23T08:27:09.191Z,23.18
2023-11-23T08:28:11.850Z,23.42
2023-11-23T08:29:14.439Z,22.80
2023-11-23T08:30:19.118Z,23.60
2023-11-23T08:31:24.683Z,23.13
2023-11-23T08:32:27.557Z,23.32
2023-11-23T08:33:30.506Z,23.02
2023-11-23T08:34:33.891Z,23.67
2023-11-23T08:35:36.518Z,23.50
2023-11-23T08:36:43.150Z,23.42
2023-11-23T08:37:46.679Z,24.15
2023-11-23T08:38:50.361Z,23.70
2023-11-23T08:39:52.964Z,23.03
2023-11-23T08:40:55.851Z,22.73
2023-11-23T08:41:58.495Z,23.12
2023-11-23T08:43:01.825Z,24.12
2023-11-23T08:44:06.403Z,23.73
2023-11-23T08:45:09.815Z,23.12
2023-11-23T08:46:12.712Z,23.75
2023-11-23T08:47:16.065Z,24.62
2023-11-23T08:48:23.547Z,23.48
2023-11-23T08:49:27.875Z,23.55
2023-11-23T08:50:30.565Z,23.82
2023-11-23T08:51:33.353Z,23.43
2023-11-23T08:52:36.007Z,23.42
2023-11-23T08:53:39.360Z,24.00
2023-11-23T08:54:42.049Z,23.87
2023-11-23T08:55:49.367Z,24.48
2023-11-23T08:56:54.604Z,23.75
2023-11-23T08:57:57.314Z,24.53
2023-11-23T08:58:59.917Z,23.78
2023-11-23T09:00:03.719Z,23.03
2023-11-23T09:01:06.601Z,22.72
2023-11-23T09:02:19.438Z,23.08
2023-11-23T09:03:23.903Z,23.37
2023-11-23T09:04:33.523Z,23.13
2023-11-23T09:05:43.460Z,23.13
2023-11-23T09:06:46.216Z,23.10
2023-11-23T09:07:52.215Z,23.60
2023-11-23T09:08:55.687Z,23.87
2023-11-23T09:09:58.315Z,24.45
2023-11-23T09:11:00.933Z,24.33
2023-11-23T09:12:03.628Z,24.33
2023-11-23T09:13:06.464Z,24.22
2023-11-23T09:14:10.415Z,24.27
2023-11-23T09:15:14.549Z,24.48
2023-11-23T09:16:17.230Z,24.45
2023-11-23T09:17:20.906Z,23.87
2023-11-23T09:18:23.904Z,23.92
2023-11-23T09:19:26.809Z,24.38
2023-11-23T09:20:29.583Z,23.80
2023-11-23T09:21:32.239Z,23.85
2023-11-23T09:22:36.513Z,23.22
2023-11-23T09:23:39.471Z,23.07
2023-11-23T09:24:42.550Z,23.07
2023-11-23T09:25:45.585Z,22.68
2023-11-23T09:26:48.639Z,21.68
2023-11-23T09:27:51.518Z,22.58
2023-11-23T09:28:54.229Z,21.70
2023-11-23T09:29:57.687Z,22.27
2023-11-23T09:31:00.393Z,22.23
2023-11-23T09:32:04.797Z,22.60
2023-11-23T09:33:11.433Z,22.33
2023-11-23T09:34:14.476Z,21.10
2023-11-23T09:35:17.189Z,20.97
2023-11-23T09:36:20.247Z,22.37
2023-11-23T09:37:23.828Z,21.60
2023-11-23T09:38:26.411Z,20.78
2023-11-23T09:39:29.453Z,21.73
2023-11-23T09:40:33.617Z,21.93
2023-11-23T09:41:39.597Z,22.00
2023-11-23T09:42:42.225Z,22.22
2023-11-23T09:43:47.907Z,22.50
2023-11-23T09:47:19.983Z,22.90
2023-11-23T09:48:32.181Z,21.80
2023-11-23T09:49:41.051Z,22.38
2023-11-23T09:51:04.230Z,22.28
2023-11-23T09:52:13.574Z,22.13
2023-11-23T09:53:16.848Z,21.48
2023-11-23T09:54:21.041Z,22.50
2023-11-23T09:55:24.981Z,21.67
2023-11-23T09:56:28.122Z,21.12
2023-11-23T09:57:31.276Z,20.92
2023-11-23T09:58:34.284Z,21.30
2023-11-23T09:59:38.748Z,21.52
2023-11-23T10:00:41.663Z,21.47
2023-11-23T10:01:45.318Z,21.40
2023-11-23T10:02:57.224Z,20.87
2023-11-23T10:04:01.353Z,20.08
2023-11-23T10:05:07.046Z,20.23
2023-11-23T10:06:09.927Z,20.80
2023-11-23T10:07:13.848Z,20.65
2023-11-23T10:08:18.051Z,20.42
2023-11-23T10:09:23.917Z,20.83
2023-11-23T10:10:29.772Z,20.40
2023-11-23T10:11:32.504Z,20.32
2023-11-23T10:12:35.229Z,20.65
2023-11-23T10:13:37.985Z,20.07
2023-11-23T10:14:41.076Z,20.80
2023-11-23T10:15:45.537Z,20.82
2023-11-23T10:16:48.153Z,21.25
2023-11-23T10:17:50.829Z,20.68
2023-11-23T10:18:54.788Z,20.15
2023-11-23T10:20:16.375Z,19.88
2023-11-23T10:21:19.191Z,19.97
2023-11-23T10:22:23.041Z,19.70
2023-11-23T10:23:25.699Z,21.10
2023-11-23T10:24:28.979Z,20.65
2023-11-23T10:25:37.134Z,20.17
2023-11-23T10:26:39.961Z,20.27
2023-11-23T10:27:42.589Z,20.27
2023-11-23T10:28:45.615Z,20.00
2023-11-23T10:29:48.443Z,19.23
2023-11-23T10:30:52.236Z,20.20
2023-11-23T10:31:57.144Z,19.82
2023-11-23T10:33:01.496Z,20.33
2023-11-23T10:34:04.965Z,19.90
2023-11-23T10:35:10.992Z,20.57
2023-11-23T10:36:14.779Z,20.97
2023-11-23T10:37:20.540Z,20.25
2023-11-23T10:38:32.416Z,20.40
2023-11-23T10:39:43.378Z,21.38
2023-11-23T10:40:57.282Z,21.18
2023-11-23T10:42:01.752Z,22.08
2023-11-23T10:43:06.402Z,21.45
2023-11-23T10:44:09.736Z,21.17
2023-11-23T10:45:14.265Z,20.90
2023-11-23T10:46:19.817Z,20.55
2023-11-23T10:47:24.634Z,21.20
2023-11-23T10:48:28.132Z,20.70
2023-11-23T10:49:35.365Z,20.52
2023-11-23T10:50:39.104Z,20.02
2023-11-23T10:51:43.800Z,20.15
2023-11-23T10:52:46.489Z,21.40
2023-11-23T10:53:49.064Z,19.95
2023-11-23T10:54:51.918Z,19.95
2023-11-23T10:55:55.968Z,20.53
2023-11-23T10:57:01.454Z,20.33
2023-11-23T10:58:14.210Z,20.47
2023-11-23T10:59:21.633Z,20.42
2023-11-23T11:00:28.031Z,20.40
2023-11-23T11:01:32.170Z,20.57
2023-11-23T11:02:35.075Z,20.53
2023-11-23T11:03:40.484Z,20.58
2023-11-23T11:04:43.379Z,20.58
2023-11-23T11:05:50.164Z,20.17
2023-11-23T11:06:55.648Z,20.35
2023-11-23T11:08:06.948Z,20.33
2023-11-23T11:09:15.569Z,20.78
2023-11-23T11:10:18.338Z,20.57
2023-11-23T11:11:24.126Z,20.42
2023-11-23T11:12:39.625Z,21.05
2023-11-23T11:13:46.356Z,19.42
2023-11-23T11:14:52.424Z,19.58
2023-11-23T11:15:59.305Z,19.68
2023-11-23T11:17:06.412Z,19.58
2023-11-23T11:18:11.564Z,19.88
2023-11-23T11:19:17.641Z,19.77
2023-11-23T11:20:23.581Z,20.35
2023-11-23T11:21:27.825Z,20.23
2023-11-23T11:22:32.019Z,20.05
2023-11-23T11:23:48.836Z,19.45
2023-11-23T11:24:59.029Z,19.82
2023-11-23T11:26:08.955Z,19.60
2023-11-23T11:29:10.093Z,19.83
2023-11-23T11:30:45.321Z,20.18
2023-11-23T11:32:12.871Z,24.23
2023-11-23T11:33:21.136Z,38.68
2023-11-23T11:34:50.723Z,25.72
2023-11-23T11:36:00.734Z,21.35
2023-11-23T11:37:11.241Z,26.37
2023-11-23T11:38:18.233Z,18.97
2023-11-23T11:39:24.957Z,18.72
2023-11-23T11:40:54.502Z,21.78
2023-11-23T11:42:07.694Z,18.68
2023-11-23T11:43:12.303Z,19.10
2023-11-23T11:44:17.728Z,19.70
2023-11-23T11:45:22.091Z,18.23
2023-11-23T11:46:30.165Z,27.42
2023-11-23T11:47:33.411Z,20.88
2023-11-23T11:48:36.224Z,18.15
2023-11-23T11:49:40.084Z,19.55
2023-11-23T11:50:44.265Z,20.08
2023-11-23T11:51:47.286Z,18.88
2023-11-23T11:52:50.361Z,16.73
2023-11-23T11:53:55.409Z,17.65
2023-11-23T11:54:58.928Z,18.33
2023-11-23T11:56:01.509Z,18.60
2023-11-23T11:57:04.309Z,17.93
2023-11-23T11:58:06.940Z,18.23
2023-11-23T11:59:13.064Z,18.48
2023-11-23T12:00:15.816Z,18.98
2023-11-23T12:01:19.424Z,18.42
2023-11-23T12:02:43.190Z,18.65
2023-11-23T12:03:50.502Z,18.67
2023-11-23T12:05:13.718Z,18.17
2023-11-23T12:06:19.448Z,18.85
2023-11-23T12:07:22.375Z,18.22
2023-11-23T12:08:32.253Z,17.77
2023-11-23T12:09:41.523Z,17.93
2023-11-23T12:10:48.773Z,17.27
2023-11-23T12:11:55.530Z,17.47
2023-11-23T12:12:59.449Z,16.53
2023-11-23T12:14:02.248Z,16.72
2023-11-23T12:15:06.447Z,16.20
2023-11-23T12:16:10.406Z,16.38
2023-11-23T12:17:14.364Z,16.72
2023-11-23T12:18:18.172Z,17.90
2023-11-23T12:19:23.688Z,17.52
2023-11-23T12:20:39.746Z,17.63
2023-11-23T12:21:42.647Z,18.58
2023-11-23T12:22:47.910Z,18.45
2023-11-23T12:23:50.563Z,17.73
2023-11-23T12:24:53.927Z,18.37
2023-11-23T12:25:57.056Z,18.28
2023-11-23T12:27:00.906Z,18.02
2023-11-23T12:28:04.228Z,16.97
2023-11-23T12:29:06.900Z,17.40
2023-11-23T12:30:12.145Z,19.17
2023-11-23T12:31:18.608Z,17.37
2023-11-23T12:32:21.944Z,17.95
2023-11-23T12:33:25.454Z,17.42
2023-11-23T12:34:28.391Z,19.72
2023-11-23T12:35:31.046Z,29.10
2023-11-23T12:36:37.098Z,17.45
2023-11-23T12:37:44.481Z,17.78
2023-11-23T12:38:47.640Z,17.33
2023-11-23T12:39:53.717Z,16.38
2023-11-23T12:40:56.502Z,37.10
2023-11-23T12:41:59.104Z,26.32
2023-11-23T12:43:01.780Z,17.30
2023-11-23T12:44:05.084Z,26.25
2023-11-23T12:45:09.861Z,18.92
2023-11-23T12:46:12.679Z,28.40
2023-11-23T12:47:15.615Z,22.83
2023-11-23T12:48:18.499Z,23.80
2023-11-23T12:49:21.474Z,23.32
2023-11-23T12:50:24.119Z,23.68
2023-11-23T12:51:26.864Z,18.28
2023-11-23T12:52:30.563Z,17.37
2023-11-23T12:53:33.247Z,17.88
2023-11-23T12:54:36.074Z,17.53
2023-11-23T12:55:38.745Z,22.13
2023-11-23T12:56:41.446Z,23.48
2023-11-23T12:57:44.394Z,19.18
2023-11-23T12:58:48.751Z,22.38
2023-11-23T12:59:52.709Z,19.10
2023-11-23T13:00:55.433Z,18.27
2023-11-23T13:02:00.760Z,18.55
2023-11-23T13:03:05.972Z,18.03
2023-11-23T13:04:10.033Z,22.53
2023-11-23T13:05:13.825Z,19.72
2023-11-23T13:06:17.361Z,18.85
2023-11-23T13:07:20.550Z,19.48
2023-11-23T13:08:23.698Z,19.32
2023-11-23T13:09:28.551Z,19.45
2023-11-23T13:10:32.960Z,18.85
2023-11-23T13:11:35.687Z,18.80
2023-11-23T13:12:39.132Z,18.87
2023-11-23T13:13:43.713Z,18.78
2023-11-23T13:14:48.770Z,17.85
2023-11-23T13:15:51.524Z,19.08
2023-11-23T13:16:54.312Z,18.00
2023-11-23T13:17:58.655Z,17.72
2023-11-23T13:19:16.326Z,18.28
2023-11-23T13:20:30.058Z,18.38
2023-11-23T13:21:39.783Z,18.20
2023-11-23T13:22:43.664Z,18.22
2023-11-23T13:23:48.763Z,16.57
2023-11-23T13:24:52.044Z,17.48
2023-11-23T13:25:54.697Z,17.83
2023-11-23T13:26:57.744Z,17.18
2023-11-23T13:28:01.209Z,18.05
2023-11-23T13:29:04.039Z,17.60
2023-11-23T13:30:08.722Z,17.58
2023-11-23T13:31:12.225Z,17.32
2023-11-23T13:32:15.132Z,17.13
2023-11-23T13:33:24.113Z,17.18
2023-11-23T13:34:27.685Z,17.25
2023-11-23T13:35:33.897Z,17.68
2023-11-23T13:36:36.927Z,17.22
2023-11-23T13:37:40.204Z,17.77
2023-11-23T13:38:42.936Z,17.43
2023-11-23T13:39:45.630Z,18.10
2023-11-23T13:40:51.032Z,17.68
2023-11-23T13:41:53.819Z,17.38
2023-11-23T13:42:56.521Z,17.63
2023-11-23T13:43:59.781Z,18.47
2023-11-23T13:45:03.665Z,18.43
2023-11-23T13:46:06.837Z,17.88
2023-11-23T13:47:10.182Z,18.35
2023-11-23T13:48:15.898Z,17.15
2023-11-23T13:49:18.550Z,18.90